createdAt,value
2023-01-10T00:00:34.536Z,7.37
2023-01-10T00:02:37.565Z,7.40
2023-01-10T00:04:40.522Z,7.43
2023-01-10T00:06:43.409Z,7.49
2023-01-10T00:08:47.644Z,7.46
2023-01-10T00:10:50.388Z,7.39
2023-01-10T00:13:24.987Z,7.46
2023-01-10T00:15:28.054Z,7.44
2023-01-10T00:17:30.997Z,7.39
2023-01-10T00:19:33.831Z,7.37
2023-01-10T00:21:36.893Z,7.42
2023-01-10T00:23:39.742Z,7.44
2023-01-10T00:25:43.865Z,7.42
2023-01-10T00:27:49.336Z,7.31
2023-01-10T00:29:53.782Z,7.31
2023-01-10T00:31:57.101Z,7.31
2023-01-10T00:33:59.886Z,7.24
2023-01-10T00:36:04.163Z,7.21
2023-01-10T00:38:07.373Z,7.18
2023-01-10T00:40:13.665Z,7.07
2023-01-10T00:42:35.576Z,7.10
2023-01-10T00:44:38.370Z,7.16
2023-01-10T00:46:41.213Z,7.15
2023-01-10T00:48:44.011Z,7.06
2023-01-10T00:50:47.224Z,7.09
2023-01-10T00:52:50.102Z,7.06
2023-01-10T00:54:52.926Z,7.01
2023-01-10T00:56:55.683Z,6.98
2023-01-10T00:58:59.878Z,7.02
2023-01-10T01:01:04.649Z,6.97
2023-01-10T01:03:07.925Z,6.94
2023-01-10T01:05:10.904Z,6.92
2023-01-10T01:07:14.091Z,6.87
2023-01-10T01:09:17.023Z,6.81
2023-01-10T01:11:19.861Z,6.85
2023-01-10T01:13:23.222Z,6.89
2023-01-10T01:15:28.412Z,6.98
2023-01-10T01:17:31.215Z,7.01
2023-01-10T01:19:33.999Z,6.97
2023-01-10T01:21:36.735Z,6.87
2023-01-10T01:23:39.492Z,6.86
2023-01-10T01:25:42.472Z,6.85
2023-01-10T01:27:45.322Z,6.92
2023-01-10T01:29:48.061Z,6.90
2023-01-10T01:31:52.249Z,6.91
2023-01-10T01:33:55.111Z,6.82
2023-01-10T01:35:57.978Z,6.79
2023-01-10T01:38:01.046Z,6.76
2023-01-10T01:40:04.156Z,6.75
2023-01-10T01:42:07.778Z,6.79
2023-01-10T01:44:16.504Z,6.80
2023-01-10T01:46:19.458Z,6.81
2023-01-10T01:48:31.236Z,6.85
2023-01-10T01:50:39.541Z,6.88
2023-01-10T01:52:42.427Z,6.84
2023-01-10T01:54:45.292Z,6.78
2023-01-10T01:56:52.603Z,6.80
2023-01-10T01:58:59.287Z,6.90
2023-01-10T02:01:02.338Z,6.92
2023-01-10T02:03:06.717Z,7.01
2023-01-10T02:05:13.940Z,7.06
2023-01-10T02:07:16.833Z,6.96
2023-01-10T02:09:25.811Z,6.96
2023-01-10T02:11:30.468Z,6.95
2023-01-10T02:13:35.125Z,6.99
2023-01-10T02:15:38.086Z,6.90
2023-01-10T02:17:41.193Z,6.99
2023-01-10T02:19:52.582Z,7.06
2023-01-10T02:22:46.241Z,7.14
2023-01-10T02:25:19.647Z,7.16
2023-01-10T02:27:27.415Z,7.13
2023-01-10T02:30:15.216Z,6.98
2023-01-10T02:32:47.789Z,7.05
2023-01-10T02:35:09.271Z,6.95
2023-01-10T02:37:16.490Z,6.88
2023-01-10T02:39:27.654Z,6.90
2023-01-10T02:41:36.498Z,6.94
2023-01-10T02:43:43.663Z,6.88
2023-01-10T02:45:51.370Z,6.85
2023-01-10T02:47:56.916Z,6.87
2023-01-10T02:50:17.612Z,6.74
2023-01-10T02:52:24.508Z,6.71
2023-01-10T02:54:30.914Z,6.72
2023-01-10T02:57:18.049Z,6.75
2023-01-10T02:59:53.011Z,6.86
2023-01-10T03:02:01.352Z,6.81
2023-01-10T03:04:13.787Z,6.78
2023-01-10T03:06:28.693Z,6.83
2023-01-10T03:08:37.837Z,6.89
2023-01-10T03:10:46.194Z,6.81
2023-01-10T03:12:52.746Z,6.74
2023-01-10T03:14:58.256Z,6.71
2023-01-10T03:17:04.980Z,6.70
2023-01-10T03:19:12.505Z,6.67
2023-01-10T03:21:19.725Z,6.62
2023-01-10T03:23:24.302Z,6.54
2023-01-10T03:25:34.172Z,6.55
2023-01-10T03:27:45.543Z,6.55
2023-01-10T03:29:55.569Z,6.51
2023-01-10T03:32:03.941Z,6.47
2023-01-10T03:34:07.230Z,6.44
2023-01-10T03:36:20.804Z,6.49
2023-01-10T03:38:31.325Z,6.43
2023-01-10T03:40:42.184Z,6.48
2023-01-10T03:43:07.618Z,6.55
2023-01-10T03:45:16.137Z,6.57
2023-01-10T03:47:27.901Z,6.60
2023-01-10T03:49:32.586Z,6.58
2023-01-10T03:51:38.474Z,6.62
2023-01-10T03:53:41.336Z,6.58
2023-01-10T03:55:46.280Z,6.58
2023-01-10T03:57:48.967Z,6.42
2023-01-10T03:59:54.040Z,6.43
2023-01-10T04:01:57.403Z,6.49
2023-01-10T04:04:00.337Z,6.45
2023-01-10T04:06:04.665Z,6.42
2023-01-10T04:08:08.846Z,6.36
2023-01-10T04:10:12.582Z,6.29
2023-01-10T04:12:15.733Z,6.29
2023-01-10T04:14:18.510Z,6.29
2023-01-10T04:16:21.422Z,6.26
2023-01-10T04:18:24.303Z,6.20
2023-01-10T04:20:27.429Z,6.18
2023-01-10T04:22:30.212Z,6.18
2023-01-10T04:24:34.358Z,6.20
2023-01-10T04:26:37.285Z,6.19
2023-01-10T04:28:40.136Z,6.20
2023-01-10T04:30:42.974Z,6.18
2023-01-10T04:32:45.836Z,6.12
2023-01-10T04:34:49.712Z,6.13
2023-01-10T04:36:52.550Z,6.07
2023-01-10T04:38:55.455Z,6.09
2023-01-10T04:40:59.701Z,6.08
2023-01-10T04:43:02.777Z,6.11
2023-01-10T04:45:06.509Z,6.16
2023-01-10T04:47:09.295Z,6.24
2023-01-10T04:49:12.563Z,6.29
2023-01-10T04:51:15.349Z,6.27
2023-01-10T04:53:18.496Z,6.29
2023-01-10T04:55:21.669Z,6.22
2023-01-10T04:57:25.863Z,6.18
2023-01-10T04:59:28.741Z,6.15
2023-01-10T05:01:31.559Z,6.15
2023-01-10T05:03:34.393Z,6.17
2023-01-10T05:05:37.960Z,6.25
2023-01-10T05:07:41.423Z,6.21
2023-01-10T05:09:44.175Z,6.15
2023-01-10T05:11:46.956Z,6.16
2023-01-10T05:13:51.144Z,6.15
2023-01-10T05:15:55.016Z,6.14
2023-01-10T05:18:00.913Z,6.14
2023-01-10T05:20:03.902Z,6.11
2023-01-10T05:22:06.705Z,6.13
2023-01-10T05:24:10.144Z,6.14
2023-01-10T05:26:15.176Z,6.15
2023-01-10T05:28:17.992Z,6.16
2023-01-10T05:30:22.521Z,6.27
2023-01-10T05:32:29.354Z,6.31
2023-01-10T05:34:32.207Z,6.33
2023-01-10T05:36:34.990Z,6.36
2023-01-10T05:38:37.792Z,6.42
2023-01-10T05:40:40.535Z,6.37
2023-01-10T05:42:43.441Z,6.38
2023-01-10T05:44:46.247Z,6.36
2023-01-10T05:46:50.635Z,6.38
2023-01-10T05:48:53.699Z,6.39
2023-01-10T05:50:57.608Z,6.38
2023-01-10T05:53:04.447Z,6.42
2023-01-10T05:55:07.828Z,6.53
2023-01-10T05:57:10.653Z,6.53
2023-01-10T05:59:27.381Z,6.55
2023-01-10T06:01:30.675Z,6.63
2023-01-10T06:03:34.853Z,6.64
2023-01-10T06:05:37.663Z,6.68
2023-01-10T06:07:40.502Z,6.62
2023-01-10T06:09:43.286Z,6.62
2023-01-10T06:11:46.171Z,6.63
2023-01-10T06:13:53.730Z,6.68
2023-01-10T06:15:56.797Z,6.69
2023-01-10T06:17:59.531Z,6.64
2023-01-10T06:20:03.994Z,6.59
2023-01-10T06:22:06.830Z,6.56
2023-01-10T06:24:10.450Z,6.61
2023-01-10T06:26:13.355Z,6.66
2023-01-10T06:28:16.392Z,6.71
2023-01-10T06:30:19.340Z,6.72
2023-01-10T06:32:22.225Z,6.66
2023-01-10T06:34:25.330Z,6.74
2023-01-10T06:36:29.443Z,6.67
2023-01-10T06:38:32.223Z,6.61
2023-01-10T06:40:35.054Z,6.59
2023-01-10T06:42:38.795Z,6.63
2023-01-10T06:44:41.582Z,6.57
2023-01-10T06:46:44.858Z,6.52
2023-01-10T06:48:48.329Z,6.52
2023-01-10T06:50:51.398Z,6.44
2023-01-10T06:52:59.647Z,6.49
2023-01-10T06:55:02.476Z,6.50
2023-01-10T06:57:05.821Z,6.57
2023-01-10T06:59:09.986Z,6.59
2023-01-10T07:01:16.030Z,6.51
2023-01-10T07:03:19.173Z,6.60
2023-01-10T07:05:22.176Z,6.76
2023-01-10T07:07:25.004Z,6.89
2023-01-10T07:09:29.481Z,6.97
2023-01-10T07:11:34.239Z,7.01
2023-01-10T07:13:37.142Z,7.09
2023-01-10T07:15:39.948Z,7.12
2023-01-10T07:17:42.756Z,7.06
2023-01-10T07:19:45.563Z,7.06
2023-01-10T07:21:48.356Z,7.05
2023-01-10T07:23:52.120Z,7.04
2023-01-10T07:25:56.299Z,6.89
2023-01-10T07:27:59.094Z,6.73
2023-01-10T07:30:02.032Z,6.69
2023-01-10T07:32:05.143Z,6.66
2023-01-10T07:34:07.999Z,6.66
2023-01-10T07:36:11.245Z,6.70
2023-01-10T07:38:14.009Z,6.68
2023-01-10T07:40:16.945Z,6.64
2023-01-10T07:42:21.051Z,6.70
2023-01-10T07:44:24.116Z,6.73
2023-01-10T07:46:26.974Z,6.71
2023-01-10T07:48:30.228Z,6.70
2023-01-10T07:50:35.455Z,6.69
2023-01-10T07:52:38.482Z,6.54
2023-01-10T07:54:41.331Z,6.50
2023-01-10T07:56:44.572Z,6.38
2023-01-10T07:58:48.765Z,6.32
2023-01-10T08:00:51.636Z,6.39
2023-01-10T08:02:55.185Z,6.52
2023-01-10T08:04:58.184Z,6.60
2023-01-10T08:07:00.966Z,6.52
2023-01-10T08:09:05.815Z,6.54
2023-01-10T08:11:08.677Z,6.58
2023-01-10T08:13:18.867Z,6.60
2023-01-10T08:15:23.363Z,6.73
2023-01-10T08:17:26.650Z,6.84
2023-01-10T08:19:30.521Z,6.82
2023-01-10T08:21:33.472Z,6.85
2023-01-10T08:23:36.685Z,6.87
2023-01-10T08:25:39.710Z,6.89
2023-01-10T08:27:42.629Z,6.89
2023-01-10T08:29:45.603Z,6.95
2023-01-10T08:31:49.779Z,6.98
2023-01-10T08:33:52.610Z,7.00
2023-01-10T08:35:55.371Z,6.92
2023-01-10T08:38:00.592Z,6.94
2023-01-10T08:40:03.452Z,6.92
2023-01-10T08:42:06.389Z,6.86
2023-01-10T08:44:11.519Z,6.92
2023-01-10T08:46:14.354Z,7.06
2023-01-10T08:48:18.782Z,7.02
2023-01-10T08:50:21.760Z,6.96
2023-01-10T08:52:24.574Z,6.93
2023-01-10T08:54:27.317Z,6.76
2023-01-10T08:56:30.590Z,6.74
2023-01-10T08:58:33.556Z,6.76
2023-01-10T09:00:36.385Z,6.78
2023-01-10T09:02:41.157Z,6.83
2023-01-10T09:04:45.252Z,6.66
2023-01-10T09:06:47.984Z,6.67
2023-01-10T09:08:50.836Z,6.65
2023-01-10T09:10:53.827Z,6.67
2023-01-10T09:12:59.864Z,6.77
2023-01-10T09:15:02.841Z,6.90
2023-01-10T09:17:05.649Z,6.99
2023-01-10T09:19:08.692Z,6.99
2023-01-10T09:21:12.789Z,6.88
2023-01-10T09:23:19.996Z,6.88
2023-01-10T09:25:23.462Z,6.77
2023-01-10T09:27:26.304Z,6.74
2023-01-10T09:29:29.090Z,6.75
2023-01-10T09:31:31.922Z,6.68
2023-01-10T09:33:45.661Z,6.62
2023-01-10T09:35:49.462Z,6.59
2023-01-10T09:37:56.592Z,6.63
2023-01-10T09:39:59.442Z,6.76
2023-01-10T09:42:15.503Z,6.69
2023-01-10T09:44:26.223Z,6.71
2023-01-10T09:46:40.755Z,6.72
2023-01-10T09:48:50.327Z,6.78
2023-01-10T09:51:10.165Z,6.89
2023-01-10T09:53:17.501Z,6.97
2023-01-10T09:55:27.052Z,6.94
2023-01-10T09:57:29.997Z,6.93
2023-01-10T09:59:38.016Z,6.89
2023-01-10T10:01:41.269Z,6.87
2023-01-10T10:03:50.555Z,6.94
2023-01-10T10:06:00.868Z,7.00
2023-01-10T10:08:18.919Z,6.98
2023-01-10T10:10:25.380Z,7.00
2023-01-10T10:12:38.514Z,7.01
2023-01-10T10:14:56.927Z,7.14
2023-01-10T10:17:11.377Z,7.11
2023-01-10T10:19:22.998Z,7.14
2023-01-10T10:21:34.658Z,7.05
2023-01-10T10:24:00.539Z,7.01
2023-01-10T10:26:05.393Z,6.95
2023-01-10T10:28:31.481Z,6.95
2023-01-10T10:30:50.004Z,7.07
2023-01-10T10:33:02.115Z,7.08
2023-01-10T10:35:14.364Z,7.19
2023-01-10T10:37:22.729Z,7.21
2023-01-10T10:39:43.033Z,7.28
2023-01-10T10:41:49.144Z,7.40
2023-01-10T10:43:55.394Z,7.50
2023-01-10T10:46:02.181Z,7.54
2023-01-10T10:48:14.130Z,7.70
2023-01-10T10:50:22.428Z,7.72
2023-01-10T10:52:28.087Z,7.65
2023-01-10T10:54:34.641Z,7.59
2023-01-10T10:56:37.498Z,7.59
2023-01-10T10:58:43.074Z,7.72
2023-01-10T11:00:46.535Z,7.74
2023-01-10T11:02:53.989Z,7.66
2023-01-10T11:05:08.397Z,7.57
2023-01-10T11:07:17.415Z,7.74
2023-01-10T11:09:24.097Z,7.79
2023-01-10T11:11:30.012Z,7.88
2023-01-10T11:13:45.033Z,7.90
2023-01-10T11:15:49.472Z,7.86
2023-01-10T11:18:06.258Z,7.97
2023-01-10T11:20:17.447Z,7.83
2023-01-10T11:22:20.479Z,7.93
2023-01-10T11:24:31.641Z,8.08
2023-01-10T11:26:40.145Z,8.17
2023-01-10T11:28:45.702Z,8.30
2023-01-10T11:30:51.766Z,8.34
2023-01-10T11:32:58.062Z,8.17
2023-01-10T11:35:03.436Z,8.08
2023-01-10T11:37:19.068Z,7.99
2023-01-10T11:39:21.966Z,8.06
2023-01-10T11:41:31.515Z,8.18
2023-01-10T11:43:37.737Z,8.28
2023-01-10T11:45:40.971Z,8.24
2023-01-10T11:47:46.311Z,8.06
2023-01-10T11:49:51.050Z,8.01
2023-01-10T11:51:59.355Z,8.07
2023-01-10T11:54:04.745Z,8.13
2023-01-10T11:56:09.963Z,8.01
2023-01-10T11:58:16.001Z,7.98
2023-01-10T12:00:20.936Z,7.85
2023-01-10T12:02:25.127Z,7.79
2023-01-10T12:04:32.321Z,7.65
2023-01-10T12:06:35.593Z,7.54
2023-01-10T12:08:42.306Z,7.53
2023-01-10T12:10:59.050Z,7.46
2023-01-10T12:13:14.608Z,7.50
2023-01-10T12:15:27.567Z,7.64
2023-01-10T12:17:32.434Z,7.69
2023-01-10T12:19:35.202Z,7.72
2023-01-10T12:21:41.280Z,7.71
2023-01-10T12:24:03.734Z,7.76
2023-01-10T12:26:12.235Z,7.75
2023-01-10T12:28:18.788Z,7.82
2023-01-10T12:30:31.080Z,7.84
2023-01-10T12:32:42.721Z,7.92
2023-01-10T12:34:50.237Z,7.78
2023-01-10T12:37:06.544Z,7.85
2023-01-10T12:39:16.431Z,7.94
2023-01-10T12:41:45.544Z,7.94
2023-01-10T12:44:14.752Z,7.96
2023-01-10T12:46:41.000Z,7.83
2023-01-10T12:48:51.742Z,7.88
2023-01-10T12:51:02.293Z,7.73
2023-01-10T12:53:12.600Z,7.64
2023-01-10T12:55:17.154Z,7.77
2023-01-10T12:57:29.213Z,7.92
2023-01-10T12:59:38.239Z,7.94
2023-01-10T13:01:44.068Z,7.94
2023-01-10T13:03:54.385Z,7.88
2023-01-10T13:05:59.293Z,8.02
2023-01-10T13:08:05.334Z,7.83
2023-01-10T13:10:09.597Z,7.72
2023-01-10T13:12:17.379Z,7.74
2023-01-10T13:14:24.697Z,7.73
2023-01-10T13:16:38.216Z,7.70
2023-01-10T13:18:58.947Z,7.62
2023-01-10T13:21:08.694Z,7.60
2023-01-10T13:23:27.137Z,7.70
2023-01-10T13:25:32.006Z,7.75
2023-01-10T13:27:36.434Z,7.77
2023-01-10T13:29:42.073Z,7.88
2023-01-10T13:31:45.589Z,7.98
2023-01-10T13:33:55.352Z,8.08
2023-01-10T13:36:08.374Z,8.10
2023-01-10T13:38:19.590Z,8.06
2023-01-10T13:40:27.330Z,8.14
2023-01-10T13:42:49.619Z,8.01
2023-01-10T13:45:16.851Z,7.99
2023-01-10T13:48:12.775Z,7.80
2023-01-10T13:50:51.940Z,7.82
2023-01-10T13:52:55.581Z,7.86
2023-01-10T13:54:59.158Z,7.91
2023-01-10T13:57:01.960Z,8.03
2023-01-10T13:59:28.911Z,7.94
2023-01-10T14:01:56.052Z,7.98
2023-01-10T14:04:00.246Z,8.08
2023-01-10T14:06:06.635Z,8.18
2023-01-10T14:08:17.964Z,8.19
2023-01-10T14:10:23.782Z,8.31
2023-01-10T14:12:33.957Z,8.21
2023-01-10T14:14:40.812Z,8.16
2023-01-10T14:16:46.723Z,8.20
2023-01-10T14:18:49.650Z,8.13
2023-01-10T14:20:58.916Z,8.19
2023-01-10T14:23:07.236Z,8.16
2023-01-10T14:25:20.042Z,8.17
2023-01-10T14:27:23.626Z,8.22
2023-01-10T14:29:30.523Z,8.26
2023-01-10T14:31:36.906Z,8.25
2023-01-10T14:33:43.875Z,8.18
2023-01-10T14:35:51.466Z,8.13
2023-01-10T14:37:57.585Z,8.16
2023-01-10T14:40:02.227Z,8.17
2023-01-10T14:42:09.430Z,8.17
2023-01-10T14:44:18.917Z,8.14
2023-01-10T14:46:25.874Z,8.15
2023-01-10T14:48:31.334Z,8.22
2023-01-10T14:50:35.066Z,8.27
2023-01-10T14:52:37.881Z,8.13
2023-01-10T14:54:40.680Z,8.08
2023-01-10T14:56:47.067Z,8.08
2023-01-10T14:58:49.890Z,8.11
2023-01-10T15:00:55.580Z,8.15
2023-01-10T15:03:01.654Z,8.17
2023-01-10T15:05:10.350Z,8.17
2023-01-10T15:07:16.568Z,8.19
2023-01-10T15:09:19.393Z,8.12
2023-01-10T15:11:22.285Z,8.08
2023-01-10T15:13:28.464Z,8.06
2023-01-10T15:15:34.229Z,8.06
2023-01-10T15:17:38.135Z,8.04
2023-01-10T15:19:41.484Z,7.94
2023-01-10T15:21:45.807Z,7.95
2023-01-10T15:23:50.034Z,8.00
2023-01-10T15:25:58.410Z,7.99
2023-01-10T15:28:02.688Z,8.02
2023-01-10T15:30:11.731Z,7.93
2023-01-10T15:32:24.221Z,7.90
2023-01-10T15:34:30.186Z,7.96
2023-01-10T15:36:33.075Z,7.98
2023-01-10T15:38:39.414Z,7.93
2023-01-10T15:40:43.566Z,7.93
2023-01-10T15:42:46.415Z,7.84
2023-01-10T15:44:53.318Z,7.76
2023-01-10T15:46:58.352Z,7.80
2023-01-10T15:49:04.402Z,7.79
2023-01-10T15:51:14.993Z,7.84
2023-01-10T15:53:17.821Z,7.92
2023-01-10T15:55:35.528Z,7.81
2023-01-10T15:57:38.392Z,7.72
2023-01-10T15:59:47.417Z,7.69
2023-01-10T16:01:55.426Z,7.69
2023-01-10T16:04:02.275Z,7.72
2023-01-10T16:06:09.626Z,7.74
2023-01-10T16:08:13.061Z,7.71
2023-01-10T16:10:21.183Z,7.84
2023-01-10T16:12:47.315Z,7.87
2023-01-10T16:14:50.063Z,7.74
2023-01-10T16:16:53.017Z,7.76
2023-01-10T16:18:55.854Z,7.76
2023-01-10T16:21:02.470Z,7.77
2023-01-10T16:23:08.816Z,7.71
2023-01-10T16:25:16.433Z,7.73
2023-01-10T16:27:19.355Z,7.74
2023-01-10T16:29:22.646Z,7.75
2023-01-10T16:31:25.544Z,7.76
2023-01-10T16:33:29.043Z,7.75
2023-01-10T16:35:31.947Z,7.67
2023-01-10T16:37:36.157Z,7.75
2023-01-10T16:39:38.959Z,7.78
2023-01-10T16:42:00.349Z,7.68
2023-01-10T16:44:03.496Z,7.65
2023-01-10T16:46:06.720Z,7.65
2023-01-10T16:48:10.763Z,7.65
2023-01-10T16:50:13.590Z,7.63
2023-01-10T16:52:16.470Z,7.62
2023-01-10T16:54:22.513Z,7.73
2023-01-10T16:56:26.742Z,7.69
2023-01-10T16:58:29.669Z,7.67
2023-01-10T17:00:32.625Z,7.68
2023-01-10T17:02:35.452Z,7.71
2023-01-10T17:04:39.854Z,7.69
2023-01-10T17:06:42.658Z,7.69
2023-01-10T17:08:45.919Z,7.71
2023-01-10T17:10:53.426Z,7.73
2023-01-10T17:12:56.363Z,7.69
2023-01-10T17:14:59.669Z,7.69
2023-01-10T17:17:05.523Z,7.69
2023-01-10T17:19:09.532Z,7.67
2023-01-10T17:21:16.204Z,7.66
2023-01-10T17:23:19.141Z,7.69
2023-01-10T17:25:22.234Z,7.70
2023-01-10T17:27:26.372Z,7.72
2023-01-10T17:29:30.235Z,7.76
2023-01-10T17:31:33.132Z,7.76
2023-01-10T17:33:36.175Z,7.83
2023-01-10T17:35:41.091Z,7.80
2023-01-10T17:37:43.742Z,7.69
2023-01-10T17:39:46.537Z,7.71
2023-01-10T17:41:49.480Z,7.75
2023-01-10T17:43:53.731Z,7.81
2023-01-10T17:45:58.612Z,7.75
2023-01-10T17:48:01.603Z,7.75
2023-01-10T17:50:05.075Z,7.76
2023-01-10T17:52:08.077Z,7.73
2023-01-10T17:54:10.858Z,7.74
2023-01-10T17:56:14.465Z,7.78
2023-01-10T17:58:18.609Z,7.76
2023-01-10T18:00:22.841Z,7.71
2023-01-10T18:02:25.851Z,7.73
2023-01-10T18:04:28.809Z,7.68
2023-01-10T18:06:31.670Z,7.72
2023-01-10T18:08:34.522Z,7.77
2023-01-10T18:10:37.213Z,7.74
2023-01-10T18:12:40.212Z,7.74
2023-01-10T18:14:43.057Z,7.67
2023-01-10T18:16:47.317Z,7.72
2023-01-10T18:18:50.511Z,7.75
2023-01-10T18:20:55.210Z,7.74
2023-01-10T18:23:15.447Z,7.71
2023-01-10T18:25:19.348Z,7.77
2023-01-10T18:27:22.327Z,7.73
2023-01-10T18:29:25.107Z,7.78
2023-01-10T18:31:27.995Z,7.76
2023-01-10T18:33:32.504Z,7.80
2023-01-10T18:35:35.364Z,7.77
2023-01-10T18:37:38.331Z,7.80
2023-01-10T18:39:43.341Z,7.78
2023-01-10T18:41:46.135Z,7.75
2023-01-10T18:43:49.265Z,7.73
2023-01-10T18:46:00.831Z,7.69
2023-01-10T18:48:05.399Z,7.69
2023-01-10T18:50:10.745Z,7.81
2023-01-10T18:52:13.576Z,7.78
2023-01-10T18:54:16.501Z,7.76
2023-01-10T18:56:19.313Z,7.74
2023-01-10T18:58:24.045Z,7.70
2023-01-10T19:00:27.215Z,7.68
2023-01-10T19:02:30.103Z,7.82
2023-01-10T19:04:33.062Z,7.77
2023-01-10T19:06:37.162Z,7.78
2023-01-10T19:08:40.620Z,7.82
2023-01-10T19:11:07.091Z,7.81
2023-01-10T19:13:07.289Z,7.76
2023-01-10T19:15:11.297Z,7.82
2023-01-10T19:17:14.129Z,7.82
2023-01-10T19:19:17.440Z,7.78
2023-01-10T19:21:20.990Z,7.80
2023-01-10T19:23:25.144Z,7.77
2023-01-10T19:25:28.111Z,7.78
2023-01-10T19:27:30.872Z,7.77
2023-01-10T19:29:34.902Z,7.78
2023-01-10T19:31:37.812Z,7.81
2023-01-10T19:33:43.014Z,7.78
2023-01-10T19:35:45.931Z,7.81
2023-01-10T19:37:48.884Z,7.85
2023-01-10T19:39:53.027Z,7.86
2023-01-10T19:41:55.866Z,7.81
2023-01-10T19:44:00.177Z,7.86
2023-01-10T19:46:06.932Z,7.82
2023-01-10T19:48:09.861Z,7.82
2023-01-10T19:50:12.616Z,7.81
2023-01-10T19:52:15.411Z,7.84
2023-01-10T19:54:18.838Z,7.80
2023-01-10T19:56:23.257Z,7.75
2023-01-10T19:58:26.273Z,7.79
2023-01-10T20:00:29.084Z,7.73
2023-01-10T20:02:32.277Z,7.74
2023-01-10T20:04:35.278Z,7.75
2023-01-10T20:06:39.953Z,7.73
2023-01-10T20:08:42.876Z,7.74
2023-01-10T20:10:45.774Z,7.78
2023-01-10T20:12:49.950Z,7.77
2023-01-10T20:14:52.773Z,7.75
2023-01-10T20:16:55.620Z,7.72
2023-01-10T20:18:58.406Z,7.72
2023-01-10T20:21:04.687Z,7.74
2023-01-10T20:23:09.166Z,7.75
2023-01-10T20:25:11.984Z,7.74
2023-01-10T20:27:14.781Z,7.82
2023-01-10T20:29:19.975Z,7.79
2023-01-10T20:31:24.404Z,7.76
2023-01-10T20:33:27.545Z,7.73
2023-01-10T20:35:30.377Z,7.76
2023-01-10T20:37:33.266Z,7.85
2023-01-10T20:39:36.143Z,7.74
2023-01-10T20:41:38.971Z,7.74
2023-01-10T20:43:42.298Z,7.69
2023-01-10T20:45:46.505Z,7.73
2023-01-10T20:47:53.153Z,7.85
2023-01-10T20:49:55.969Z,7.79
2023-01-10T20:51:58.906Z,7.71
2023-01-10T20:54:02.590Z,7.72
2023-01-10T20:56:06.924Z,7.71
2023-01-10T20:58:09.802Z,7.76
2023-01-10T21:00:13.717Z,7.81
2023-01-10T21:02:17.914Z,7.80
2023-01-10T21:04:20.816Z,7.80
2023-01-10T21:06:23.688Z,7.87
2023-01-10T21:08:29.434Z,7.82
2023-01-10T21:10:32.263Z,7.80
2023-01-10T21:12:35.685Z,7.81
2023-01-10T21:14:38.461Z,7.78
2023-01-10T21:16:41.296Z,7.73
2023-01-10T21:18:45.390Z,7.74
2023-01-10T21:20:48.368Z,7.67
2023-01-10T21:22:51.189Z,7.77
2023-01-10T21:24:54.701Z,7.76
2023-01-10T21:26:57.612Z,7.69
2023-01-10T21:29:01.855Z,7.66
2023-01-10T21:31:04.869Z,7.68
2023-01-10T21:33:08.152Z,7.65
2023-01-10T21:35:12.334Z,7.45
2023-01-10T21:37:15.461Z,7.50
2023-01-10T21:39:18.959Z,7.52
2023-01-10T21:41:35.912Z,7.54
2023-01-10T21:43:43.955Z,7.50
2023-01-10T21:45:46.789Z,7.54
2023-01-10T21:47:49.995Z,7.44
2023-01-10T21:49:52.904Z,7.38
2023-01-10T21:51:57.736Z,7.37
2023-01-10T21:54:00.600Z,7.34
2023-01-10T21:56:03.399Z,7.34
2023-01-10T21:58:06.320Z,7.44
2023-01-10T22:00:10.397Z,7.45
2023-01-10T22:02:17.612Z,7.45
2023-01-10T22:04:20.860Z,7.56
2023-01-10T22:06:23.719Z,7.44
2023-01-10T22:08:27.859Z,7.40
2023-01-10T22:10:31.121Z,7.54
2023-01-10T22:12:34.009Z,7.51
2023-01-10T22:14:37.011Z,7.53
2023-01-10T22:16:39.905Z,7.47
2023-01-10T22:18:44.771Z,7.50
2023-01-10T22:20:48.280Z,7.54
2023-01-10T22:22:51.079Z,7.52
2023-01-10T22:24:55.261Z,7.50
2023-01-10T22:26:58.248Z,7.49
2023-01-10T22:29:01.184Z,7.56
2023-01-10T22:31:04.658Z,7.48
2023-01-10T22:33:07.637Z,7.52
2023-01-10T22:35:13.627Z,7.56
2023-01-10T22:37:17.295Z,7.61
2023-01-10T22:39:20.225Z,7.65
2023-01-10T22:41:26.591Z,7.80
2023-01-10T22:43:29.381Z,7.75
2023-01-10T22:45:32.252Z,7.64
2023-01-10T22:47:35.052Z,7.62
2023-01-10T22:49:38.567Z,7.72
2023-01-10T22:51:41.517Z,7.68
2023-01-10T22:53:44.416Z,7.74
2023-01-10T22:55:47.261Z,7.67
2023-01-10T22:57:51.299Z,7.68
2023-01-10T22:59:54.141Z,7.68
2023-01-10T23:01:56.968Z,7.77
2023-01-10T23:03:59.747Z,7.76
2023-01-10T23:06:02.653Z,7.72
2023-01-10T23:08:05.775Z,7.70
2023-01-10T23:10:24.405Z,7.65
2023-01-10T23:12:31.779Z,7.63
2023-01-10T23:14:36.474Z,7.60
2023-01-10T23:16:39.390Z,7.63
2023-01-10T23:18:42.377Z,7.61
2023-01-10T23:20:48.478Z,7.67
2023-01-10T23:22:51.333Z,7.74
2023-01-10T23:24:54.331Z,7.62
2023-01-10T23:26:57.077Z,7.64
2023-01-10T23:28:59.875Z,7.58
2023-01-10T23:31:04.458Z,7.72
2023-01-10T23:33:07.326Z,7.75
2023-01-10T23:35:10.992Z,7.80
2023-01-10T23:37:13.743Z,7.76
2023-01-10T23:39:18.917Z,7.82
2023-01-10T23:41:21.944Z,7.81
2023-01-10T23:43:25.395Z,7.80
2023-01-10T23:45:28.146Z,7.83
2023-01-10T23:47:32.284Z,7.78
2023-01-10T23:49:35.371Z,7.82
2023-01-10T23:51:38.397Z,7.80
2023-01-10T23:53:41.842Z,7.85
2023-01-10T23:55:44.779Z,7.94
2023-01-10T23:57:47.556Z,7.94
2023-01-10T23:59:50.320Z,7.92
